sensor_id;sensor_type;location;lat;lon;timestamp;P1;durP1;ratioP1;P2;durP2;ratioP2
37805;SDS011;25082;50.870;0.022;2023-10-13T00:01:56;2.90;;;1.02;;
37805;SDS011;25082;50.870;0.022;2023-10-13T00:04:26;2.13;;;0.90;;
37805;SDS011;25082;50.870;0.022;2023-10-13T00:06:55;2.13;;;0.82;;
37805;SDS011;25082;50.870;0.022;2023-10-13T00:09:26;1.77;;;0.80;;
37805;SDS011;25082;50.870;0.022;2023-10-13T00:12:02;1.65;;;0.70;;
37805;SDS011;25082;50.870;0.022;2023-10-13T00:14:38;1.70;;;0.80;;
37805;SDS011;25082;50.870;0.022;2023-10-13T00:19:44;2.63;;;0.80;;
37805;SDS011;25082;50.870;0.022;2023-10-13T00:22:11;2.38;;;0.70;;
37805;SDS011;25082;50.870;0.022;2023-10-13T00:24:41;4.05;;;1.17;;
37805;SDS011;25082;50.870;0.022;2023-10-13T00:32:47;2.83;;;0.80;;
37805;SDS011;25082;50.870;0.022;2023-10-13T00:35:20;2.85;;;1.20;;
37805;SDS011;25082;50.870;0.022;2023-10-13T00:38:02;2.45;;;1.45;;
37805;SDS011;25082;50.870;0.022;2023-10-13T00:40:45;3.42;;;1.10;;
37805;SDS011;25082;50.870;0.022;2023-10-13T00:43:20;2.35;;;1.10;;
37805;SDS011;25082;50.870;0.022;2023-10-13T00:48:31;4.15;;;1.73;;
37805;SDS011;25082;50.870;0.022;2023-10-13T00:50:59;4.05;;;1.33;;
37805;SDS011;25082;50.870;0.022;2023-10-13T00:53:32;4.63;;;1.55;;
37805;SDS011;25082;50.870;0.022;2023-10-13T00:56:00;5.70;;;1.30;;
37805;SDS011;25082;50.870;0.022;2023-10-13T00:58:36;5.72;;;1.63;;
37805;SDS011;25082;50.870;0.022;2023-10-13T01:01:05;6.03;;;1.80;;
37805;SDS011;25082;50.870;0.022;2023-10-13T01:03:46;6.40;;;1.40;;
37805;SDS011;25082;50.870;0.022;2023-10-13T01:06:17;7.40;;;2.13;;
37805;SDS011;25082;50.870;0.022;2023-10-13T01:08:45;5.25;;;2.20;;
37805;SDS011;25082;50.870;0.022;2023-10-13T01:11:16;4.13;;;1.42;;
37805;SDS011;25082;50.870;0.022;2023-10-13T01:13:43;5.60;;;1.45;;
37805;SDS011;25082;50.870;0.022;2023-10-13T01:16:09;5.38;;;1.92;;
37805;SDS011;25082;50.870;0.022;2023-10-13T01:18:35;5.30;;;2.38;;
37805;SDS011;25082;50.870;0.022;2023-10-13T01:21:14;7.28;;;1.90;;
37805;SDS011;25082;50.870;0.022;2023-10-13T01:23:45;6.20;;;1.92;;
37805;SDS011;25082;50.870;0.022;2023-10-13T01:26:13;6.60;;;2.30;;
37805;SDS011;25082;50.870;0.022;2023-10-13T01:28:48;4.93;;;2.03;;
37805;SDS011;25082;50.870;0.022;2023-10-13T01:31:37;8.68;;;2.00;;
37805;SDS011;25082;50.870;0.022;2023-10-13T01:34:13;4.93;;;2.03;;
37805;SDS011;25082;50.870;0.022;2023-10-13T01:36:56;6.03;;;2.03;;
37805;SDS011;25082;50.870;0.022;2023-10-13T01:39:22;6.75;;;2.10;;
37805;SDS011;25082;50.870;0.022;2023-10-13T01:41:56;4.85;;;1.95;;
37805;SDS011;25082;50.870;0.022;2023-10-13T01:44:25;4.10;;;1.80;;
37805;SDS011;25082;50.870;0.022;2023-10-13T01:46:58;6.40;;;2.50;;
37805;SDS011;25082;50.870;0.022;2023-10-13T01:49:25;7.82;;;2.50;;
37805;SDS011;25082;50.870;0.022;2023-10-13T01:51:51;8.95;;;2.10;;
37805;SDS011;25082;50.870;0.022;2023-10-13T01:54:17;7.28;;;2.33;;
37805;SDS011;25082;50.870;0.022;2023-10-13T01:56:42;6.03;;;2.25;;
37805;SDS011;25082;50.870;0.022;2023-10-13T01:59:11;6.43;;;2.50;;
37805;SDS011;25082;50.870;0.022;2023-10-13T02:01:37;7.80;;;2.47;;
37805;SDS011;25082;50.870;0.022;2023-10-13T02:04:05;6.53;;;2.20;;
37805;SDS011;25082;50.870;0.022;2023-10-13T02:06:34;7.50;;;2.75;;
37805;SDS011;25082;50.870;0.022;2023-10-13T02:09:08;6.10;;;2.53;;
37805;SDS011;25082;50.870;0.022;2023-10-13T02:11:50;7.85;;;2.80;;
37805;SDS011;25082;50.870;0.022;2023-10-13T02:14:20;9.40;;;3.45;;
37805;SDS011;25082;50.870;0.022;2023-10-13T02:16:48;6.57;;;2.33;;
37805;SDS011;25082;50.870;0.022;2023-10-13T02:19:21;6.85;;;2.60;;
37805;SDS011;25082;50.870;0.022;2023-10-13T02:21:47;8.98;;;3.28;;
37805;SDS011;25082;50.870;0.022;2023-10-13T02:24:23;7.30;;;2.53;;
37805;SDS011;25082;50.870;0.022;2023-10-13T02:26:55;5.55;;;2.15;;
37805;SDS011;25082;50.870;0.022;2023-10-13T02:29:34;7.55;;;2.35;;
37805;SDS011;25082;50.870;0.022;2023-10-13T02:32:04;6.07;;;2.88;;
37805;SDS011;25082;50.870;0.022;2023-10-13T02:34:37;9.35;;;3.38;;
37805;SDS011;25082;50.870;0.022;2023-10-13T02:37:09;5.28;;;2.47;;
37805;SDS011;25082;50.870;0.022;2023-10-13T02:39:35;10.95;;;3.33;;
37805;SDS011;25082;50.870;0.022;2023-10-13T02:42:01;8.77;;;2.88;;
37805;SDS011;25082;50.870;0.022;2023-10-13T02:44:32;5.43;;;2.78;;
37805;SDS011;25082;50.870;0.022;2023-10-13T02:47:01;7.80;;;3.13;;
37805;SDS011;25082;50.870;0.022;2023-10-13T02:49:38;7.40;;;2.70;;
37805;SDS011;25082;50.870;0.022;2023-10-13T02:52:08;8.05;;;3.20;;
37805;SDS011;25082;50.870;0.022;2023-10-13T02:54:37;7.82;;;2.92;;
37805;SDS011;25082;50.870;0.022;2023-10-13T02:57:16;8.63;;;3.15;;
37805;SDS011;25082;50.870;0.022;2023-10-13T02:59:42;6.22;;;2.97;;
37805;SDS011;25082;50.870;0.022;2023-10-13T03:02:12;5.60;;;2.65;;
37805;SDS011;25082;50.870;0.022;2023-10-13T03:04:58;9.63;;;3.17;;
37805;SDS011;25082;50.870;0.022;2023-10-13T03:07:34;7.55;;;3.28;;
37805;SDS011;25082;50.870;0.022;2023-10-13T03:10:01;8.68;;;3.08;;
37805;SDS011;25082;50.870;0.022;2023-10-13T03:12:46;6.68;;;3.22;;
37805;SDS011;25082;50.870;0.022;2023-10-13T03:15:13;4.97;;;2.50;;
37805;SDS011;25082;50.870;0.022;2023-10-13T03:17:43;5.22;;;2.45;;
37805;SDS011;25082;50.870;0.022;2023-10-13T03:20:10;6.43;;;2.75;;
37805;SDS011;25082;50.870;0.022;2023-10-13T03:22:40;11.50;;;3.63;;
37805;SDS011;25082;50.870;0.022;2023-10-13T03:25:10;8.82;;;3.25;;
37805;SDS011;25082;50.870;0.022;2023-10-13T03:27:48;11.05;;;3.13;;
37805;SDS011;25082;50.870;0.022;2023-10-13T03:30:17;5.22;;;2.35;;
37805;SDS011;25082;50.870;0.022;2023-10-13T03:32:45;8.55;;;3.67;;
37805;SDS011;25082;50.870;0.022;2023-10-13T03:35:12;6.47;;;3.05;;
37805;SDS011;25082;50.870;0.022;2023-10-13T03:37:38;8.63;;;3.17;;
37805;SDS011;25082;50.870;0.022;2023-10-13T03:40:11;7.70;;;3.05;;
37805;SDS011;25082;50.870;0.022;2023-10-13T03:42:46;6.80;;;3.10;;
37805;SDS011;25082;50.870;0.022;2023-10-13T03:45:35;5.18;;;2.28;;
37805;SDS011;25082;50.870;0.022;2023-10-13T03:48:05;7.13;;;3.25;;
37805;SDS011;25082;50.870;0.022;2023-10-13T03:50:36;7.00;;;2.85;;
37805;SDS011;25082;50.870;0.022;2023-10-13T03:53:11;9.50;;;3.90;;
37805;SDS011;25082;50.870;0.022;2023-10-13T03:55:38;9.40;;;3.53;;
37805;SDS011;25082;50.870;0.022;2023-10-13T03:58:04;7.00;;;3.30;;
37805;SDS011;25082;50.870;0.022;2023-10-13T04:00:31;9.02;;;3.42;;
37805;SDS011;25082;50.870;0.022;2023-10-13T04:02:57;8.57;;;3.70;;
37805;SDS011;25082;50.870;0.022;2023-10-13T04:05:32;5.35;;;3.08;;
37805;SDS011;25082;50.870;0.022;2023-10-13T04:08:06;6.95;;;3.38;;
37805;SDS011;25082;50.870;0.022;2023-10-13T04:10:54;8.70;;;3.42;;
37805;SDS011;25082;50.870;0.022;2023-10-13T04:13:21;10.70;;;3.55;;
37805;SDS011;25082;50.870;0.022;2023-10-13T04:16:25;6.68;;;3.53;;
37805;SDS011;25082;50.870;0.022;2023-10-13T04:18:51;10.07;;;3.65;;
37805;SDS011;25082;50.870;0.022;2023-10-13T04:21:22;7.00;;;3.35;;
37805;SDS011;25082;50.870;0.022;2023-10-13T04:24:12;10.73;;;3.45;;
37805;SDS011;25082;50.870;0.022;2023-10-13T04:26:51;5.07;;;2.97;;
37805;SDS011;25082;50.870;0.022;2023-10-13T04:29:36;10.30;;;4.00;;
37805;SDS011;25082;50.870;0.022;2023-10-13T04:32:20;9.15;;;3.70;;
37805;SDS011;25082;50.870;0.022;2023-10-13T04:35:03;7.53;;;3.67;;
37805;SDS011;25082;50.870;0.022;2023-10-13T04:37:43;10.40;;;4.47;;
37805;SDS011;25082;50.870;0.022;2023-10-13T04:40:19;8.98;;;3.92;;
37805;SDS011;25082;50.870;0.022;2023-10-13T04:42:50;8.88;;;3.45;;
37805;SDS011;25082;50.870;0.022;2023-10-13T04:45:25;9.05;;;3.45;;
37805;SDS011;25082;50.870;0.022;2023-10-13T04:47:57;7.93;;;4.18;;
37805;SDS011;25082;50.870;0.022;2023-10-13T04:50:38;10.85;;;4.13;;
37805;SDS011;25082;50.870;0.022;2023-10-13T04:53:14;9.93;;;4.07;;
37805;SDS011;25082;50.870;0.022;2023-10-13T04:56:00;6.38;;;3.47;;
37805;SDS011;25082;50.870;0.022;2023-10-13T04:58:32;7.82;;;3.90;;
37805;SDS011;25082;50.870;0.022;2023-10-13T05:01:04;12.30;;;4.20;;
37805;SDS011;25082;50.870;0.022;2023-10-13T05:04:02;15.77;;;5.07;;
37805;SDS011;25082;50.870;0.022;2023-10-13T05:06:43;11.73;;;4.17;;
37805;SDS011;25082;50.870;0.022;2023-10-13T05:09:12;8.77;;;4.47;;
37805;SDS011;25082;50.870;0.022;2023-10-13T05:11:57;10.57;;;4.70;;
37805;SDS011;25082;50.870;0.022;2023-10-13T05:14:41;12.77;;;4.50;;
37805;SDS011;25082;50.870;0.022;2023-10-13T05:17:25;14.35;;;4.60;;
37805;SDS011;25082;50.870;0.022;2023-10-13T05:20:09;14.77;;;4.28;;
37805;SDS011;25082;50.870;0.022;2023-10-13T05:22:54;9.80;;;4.10;;
37805;SDS011;25082;50.870;0.022;2023-10-13T05:25:38;7.97;;;4.03;;
37805;SDS011;25082;50.870;0.022;2023-10-13T05:28:22;9.63;;;4.18;;
37805;SDS011;25082;50.870;0.022;2023-10-13T05:31:07;12.05;;;4.63;;
37805;SDS011;25082;50.870;0.022;2023-10-13T05:33:51;8.45;;;3.88;;
37805;SDS011;25082;50.870;0.022;2023-10-13T05:36:35;8.20;;;4.03;;
37805;SDS011;25082;50.870;0.022;2023-10-13T05:39:19;11.90;;;4.22;;
37805;SDS011;25082;50.870;0.022;2023-10-13T05:42:04;10.27;;;4.38;;
37805;SDS011;25082;50.870;0.022;2023-10-13T05:44:49;9.52;;;4.28;;
37805;SDS011;25082;50.870;0.022;2023-10-13T05:47:33;13.15;;;4.18;;
37805;SDS011;25082;50.870;0.022;2023-10-13T05:50:01;16.48;;;5.57;;
37805;SDS011;25082;50.870;0.022;2023-10-13T05:52:46;11.77;;;4.32;;
37805;SDS011;25082;50.870;0.022;2023-10-13T05:55:24;16.00;;;4.97;;
37805;SDS011;25082;50.870;0.022;2023-10-13T05:58:12;9.38;;;4.47;;
37805;SDS011;25082;50.870;0.022;2023-10-13T06:00:57;14.57;;;4.75;;
37805;SDS011;25082;50.870;0.022;2023-10-13T06:03:42;10.65;;;4.80;;
37805;SDS011;25082;50.870;0.022;2023-10-13T06:06:26;12.77;;;4.97;;
37805;SDS011;25082;50.870;0.022;2023-10-13T06:09:10;12.40;;;4.95;;
37805;SDS011;25082;50.870;0.022;2023-10-13T06:11:55;11.40;;;5.13;;
37805;SDS011;25082;50.870;0.022;2023-10-13T06:14:39;12.18;;;4.82;;
37805;SDS011;25082;50.870;0.022;2023-10-13T06:17:23;12.48;;;4.68;;
37805;SDS011;25082;50.870;0.022;2023-10-13T06:20:08;18.58;;;4.88;;
37805;SDS011;25082;50.870;0.022;2023-10-13T06:22:53;9.93;;;4.72;;
37805;SDS011;25082;50.870;0.022;2023-10-13T06:25:37;12.38;;;4.90;;
37805;SDS011;25082;50.870;0.022;2023-10-13T06:28:21;15.63;;;4.88;;
37805;SDS011;25082;50.870;0.022;2023-10-13T06:31:06;17.92;;;4.85;;
37805;SDS011;25082;50.870;0.022;2023-10-13T06:33:33;11.07;;;4.68;;
37805;SDS011;25082;50.870;0.022;2023-10-13T06:35:59;11.57;;;4.35;;
37805;SDS011;25082;50.870;0.022;2023-10-13T06:38:29;15.73;;;5.68;;
37805;SDS011;25082;50.870;0.022;2023-10-13T06:41:04;10.38;;;4.68;;
37805;SDS011;25082;50.870;0.022;2023-10-13T06:43:34;10.02;;;4.78;;
37805;SDS011;25082;50.870;0.022;2023-10-13T06:46:10;11.88;;;4.80;;
37805;SDS011;25082;50.870;0.022;2023-10-13T06:48:48;13.48;;;5.15;;
37805;SDS011;25082;50.870;0.022;2023-10-13T06:51:18;13.15;;;4.95;;
37805;SDS011;25082;50.870;0.022;2023-10-13T06:53:46;12.25;;;4.45;;
37805;SDS011;25082;50.870;0.022;2023-10-13T06:56:13;9.88;;;4.47;;
37805;SDS011;25082;50.870;0.022;2023-10-13T06:58:50;14.90;;;6.13;;
37805;SDS011;25082;50.870;0.022;2023-10-13T07:01:16;10.15;;;5.05;;
37805;SDS011;25082;50.870;0.022;2023-10-13T07:03:47;12.32;;;5.65;;
37805;SDS011;25082;50.870;0.022;2023-10-13T07:06:18;9.80;;;5.05;;
37805;SDS011;25082;50.870;0.022;2023-10-13T07:08:46;11.95;;;4.47;;
37805;SDS011;25082;50.870;0.022;2023-10-13T07:11:25;11.43;;;4.85;;
37805;SDS011;25082;50.870;0.022;2023-10-13T07:14:01;14.37;;;4.50;;
37805;SDS011;25082;50.870;0.022;2023-10-13T07:16:57;12.07;;;5.18;;
37805;SDS011;25082;50.870;0.022;2023-10-13T07:19:29;14.50;;;5.20;;
37805;SDS011;25082;50.870;0.022;2023-10-13T07:21:58;12.15;;;4.20;;
37805;SDS011;25082;50.870;0.022;2023-10-13T07:24:46;14.48;;;5.07;;
37805;SDS011;25082;50.870;0.022;2023-10-13T07:27:16;10.07;;;5.07;;
37805;SDS011;25082;50.870;0.022;2023-10-13T07:29:51;14.40;;;5.35;;
37805;SDS011;25082;50.870;0.022;2023-10-13T07:32:41;10.95;;;4.68;;
37805;SDS011;25082;50.870;0.022;2023-10-13T07:35:15;13.18;;;5.65;;
37805;SDS011;25082;50.870;0.022;2023-10-13T07:37:45;11.00;;;4.80;;
37805;SDS011;25082;50.870;0.022;2023-10-13T07:40:14;12.32;;;4.13;;
37805;SDS011;25082;50.870;0.022;2023-10-13T07:42:52;10.13;;;5.07;;
37805;SDS011;25082;50.870;0.022;2023-10-13T07:45:26;12.70;;;5.22;;
37805;SDS011;25082;50.870;0.022;2023-10-13T07:48:01;12.82;;;5.35;;
37805;SDS011;25082;50.870;0.022;2023-10-13T07:50:33;13.10;;;4.85;;
37805;SDS011;25082;50.870;0.022;2023-10-13T07:52:59;12.05;;;5.05;;
37805;SDS011;25082;50.870;0.022;2023-10-13T07:55:44;12.77;;;4.95;;
37805;SDS011;25082;50.870;0.022;2023-10-13T07:58:11;8.52;;;4.72;;
37805;SDS011;25082;50.870;0.022;2023-10-13T08:00:38;16.30;;;5.53;;
37805;SDS011;25082;50.870;0.022;2023-10-13T08:03:10;8.00;;;4.70;;
37805;SDS011;25082;50.870;0.022;2023-10-13T08:05:42;13.48;;;5.55;;
37805;SDS011;25082;50.870;0.022;2023-10-13T08:08:29;11.85;;;5.55;;
37805;SDS011;25082;50.870;0.022;2023-10-13T08:11:11;10.68;;;5.38;;
37805;SDS011;25082;50.870;0.022;2023-10-13T08:13:53;14.70;;;5.10;;
37805;SDS011;25082;50.870;0.022;2023-10-13T08:16:21;13.88;;;5.47;;
37805;SDS011;25082;50.870;0.022;2023-10-13T08:19:12;13.82;;;6.18;;
37805;SDS011;25082;50.870;0.022;2023-10-13T08:21:45;18.23;;;6.60;;
37805;SDS011;25082;50.870;0.022;2023-10-13T08:24:22;16.88;;;7.25;;
37805;SDS011;25082;50.870;0.022;2023-10-13T08:27:15;21.00;;;7.13;;
37805;SDS011;25082;50.870;0.022;2023-10-13T08:30:03;18.17;;;6.60;;
37805;SDS011;25082;50.870;0.022;2023-10-13T08:32:47;15.13;;;6.97;;
37805;SDS011;25082;50.870;0.022;2023-10-13T08:35:20;17.13;;;7.50;;
37805;SDS011;25082;50.870;0.022;2023-10-13T08:37:55;22.77;;;7.40;;
37805;SDS011;25082;50.870;0.022;2023-10-13T08:40:24;12.27;;;6.25;;
37805;SDS011;25082;50.870;0.022;2023-10-13T08:42:58;19.25;;;6.93;;
37805;SDS011;25082;50.870;0.022;2023-10-13T08:45:28;13.85;;;7.22;;
37805;SDS011;25082;50.870;0.022;2023-10-13T08:47:56;20.10;;;7.18;;
37805;SDS011;25082;50.870;0.022;2023-10-13T08:50:49;17.25;;;7.38;;
37805;SDS011;25082;50.870;0.022;2023-10-13T08:53:25;15.68;;;7.10;;
37805;SDS011;25082;50.870;0.022;2023-10-13T08:56:07;18.90;;;7.75;;
37805;SDS011;25082;50.870;0.022;2023-10-13T08:58:41;15.70;;;7.30;;
37805;SDS011;25082;50.870;0.022;2023-10-13T09:01:21;19.02;;;7.93;;
37805;SDS011;25082;50.870;0.022;2023-10-13T09:04:15;17.13;;;7.68;;
37805;SDS011;25082;50.870;0.022;2023-10-13T09:07:13;19.10;;;7.05;;
37805;SDS011;25082;50.870;0.022;2023-10-13T09:09:47;19.55;;;8.40;;
37805;SDS011;25082;50.870;0.022;2023-10-13T09:12:18;18.83;;;7.32;;
37805;SDS011;25082;50.870;0.022;2023-10-13T09:14:56;19.60;;;7.47;;
37805;SDS011;25082;50.870;0.022;2023-10-13T09:17:26;14.73;;;7.47;;
37805;SDS011;25082;50.870;0.022;2023-10-13T09:20:04;21.80;;;8.40;;
37805;SDS011;25082;50.870;0.022;2023-10-13T09:22:54;19.55;;;8.27;;
37805;SDS011;25082;50.870;0.022;2023-10-13T09:25:30;17.10;;;7.80;;
37805;SDS011;25082;50.870;0.022;2023-10-13T09:28:02;19.67;;;8.43;;
37805;SDS011;25082;50.870;0.022;2023-10-13T09:30:44;22.33;;;8.10;;
37805;SDS011;25082;50.870;0.022;2023-10-13T09:33:10;23.75;;;8.27;;
37805;SDS011;25082;50.870;0.022;2023-10-13T09:35:45;18.45;;;7.88;;
37805;SDS011;25082;50.870;0.022;2023-10-13T09:38:15;17.38;;;8.02;;
37805;SDS011;25082;50.870;0.022;2023-10-13T09:40:42;19.20;;;7.75;;
37805;SDS011;25082;50.870;0.022;2023-10-13T09:43:16;18.77;;;7.72;;
37805;SDS011;25082;50.870;0.022;2023-10-13T09:45:43;19.33;;;8.45;;
37805;SDS011;25082;50.870;0.022;2023-10-13T09:48:34;20.50;;;8.77;;
37805;SDS011;25082;50.870;0.022;2023-10-13T09:51:06;18.25;;;8.50;;
37805;SDS011;25082;50.870;0.022;2023-10-13T09:53:47;19.88;;;7.57;;
37805;SDS011;25082;50.870;0.022;2023-10-13T09:56:20;16.92;;;7.78;;
37805;SDS011;25082;50.870;0.022;2023-10-13T09:59:17;20.17;;;7.40;;
37805;SDS011;25082;50.870;0.022;2023-10-13T10:01:46;18.05;;;7.47;;
37805;SDS011;25082;50.870;0.022;2023-10-13T10:04:22;21.50;;;8.80;;
37805;SDS011;25082;50.870;0.022;2023-10-13T10:06:55;19.05;;;7.80;;
37805;SDS011;25082;50.870;0.022;2023-10-13T10:09:31;23.65;;;8.95;;
37805;SDS011;25082;50.870;0.022;2023-10-13T10:12:19;19.55;;;7.82;;
37805;SDS011;25082;50.870;0.022;2023-10-13T10:18:00;16.85;;;7.70;;
37805;SDS011;25082;50.870;0.022;2023-10-13T10:20:34;23.60;;;8.20;;
37805;SDS011;25082;50.870;0.022;2023-10-13T10:23:25;25.60;;;8.68;;
37805;SDS011;25082;50.870;0.022;2023-10-13T10:25:54;16.15;;;7.60;;
37805;SDS011;25082;50.870;0.022;2023-10-13T10:28:39;22.42;;;8.40;;
37805;SDS011;25082;50.870;0.022;2023-10-13T10:31:12;25.45;;;8.85;;
37805;SDS011;25082;50.870;0.022;2023-10-13T10:33:39;19.80;;;8.55;;
37805;SDS011;25082;50.870;0.022;2023-10-13T10:36:06;17.55;;;8.88;;
37805;SDS011;25082;50.870;0.022;2023-10-13T10:38:51;25.80;;;7.97;;
37805;SDS011;25082;50.870;0.022;2023-10-13T10:41:27;20.98;;;8.98;;
37805;SDS011;25082;50.870;0.022;2023-10-13T10:44:16;20.63;;;7.97;;
37805;SDS011;25082;50.870;0.022;2023-10-13T10:46:43;25.13;;;9.27;;
37805;SDS011;25082;50.870;0.022;2023-10-13T10:49:22;17.15;;;7.28;;
37805;SDS011;25082;50.870;0.022;2023-10-13T10:52:01;20.10;;;7.63;;
37805;SDS011;25082;50.870;0.022;2023-10-13T10:54:30;30.10;;;9.05;;
37805;SDS011;25082;50.870;0.022;2023-10-13T10:56:59;22.33;;;7.68;;
37805;SDS011;25082;50.870;0.022;2023-10-13T10:59:42;23.52;;;8.40;;
37805;SDS011;25082;50.870;0.022;2023-10-13T11:02:08;22.00;;;9.50;;
37805;SDS011;25082;50.870;0.022;2023-10-13T11:04:34;25.33;;;9.07;;
37805;SDS011;25082;50.870;0.022;2023-10-13T11:07:05;33.22;;;9.10;;
37805;SDS011;25082;50.870;0.022;2023-10-13T11:09:32;22.48;;;8.60;;
37805;SDS011;25082;50.870;0.022;2023-10-13T11:14:42;28.90;;;10.82;;
37805;SDS011;25082;50.870;0.022;2023-10-13T11:17:18;23.13;;;10.25;;
37805;SDS011;25082;50.870;0.022;2023-10-13T11:19:51;34.88;;;10.13;;
37805;SDS011;25082;50.870;0.022;2023-10-13T11:22:19;27.95;;;10.90;;
37805;SDS011;25082;50.870;0.022;2023-10-13T11:24:57;26.73;;;10.52;;
37805;SDS011;25082;50.870;0.022;2023-10-13T11:27:36;27.70;;;10.35;;
37805;SDS011;25082;50.870;0.022;2023-10-13T11:30:15;24.33;;;10.40;;
37805;SDS011;25082;50.870;0.022;2023-10-13T11:35:23;27.83;;;10.40;;
37805;SDS011;25082;50.870;0.022;2023-10-13T11:37:51;30.60;;;10.50;;
37805;SDS011;25082;50.870;0.022;2023-10-13T11:40:38;28.58;;;10.68;;
37805;SDS011;25082;50.870;0.022;2023-10-13T11:43:22;22.85;;;10.02;;
37805;SDS011;25082;50.870;0.022;2023-10-13T11:45:49;28.75;;;9.60;;
37805;SDS011;25082;50.870;0.022;2023-10-13T11:48:38;26.58;;;11.60;;
37805;SDS011;25082;50.870;0.022;2023-10-13T11:51:07;26.30;;;14.73;;
37805;SDS011;25082;50.870;0.022;2023-10-13T11:53:43;27.60;;;15.38;;
37805;SDS011;25082;50.870;0.022;2023-10-13T11:56:18;32.85;;;15.20;;
37805;SDS011;25082;50.870;0.022;2023-10-13T11:58:48;35.40;;;14.18;;
37805;SDS011;25082;50.870;0.022;2023-10-13T12:01:14;36.63;;;13.68;;
37805;SDS011;25082;50.870;0.022;2023-10-13T12:06:25;29.25;;;14.75;;
37805;SDS011;25082;50.870;0.022;2023-10-13T12:09:04;28.65;;;12.65;;
37805;SDS011;25082;50.870;0.022;2023-10-13T12:11:43;25.92;;;11.80;;
37805;SDS011;25082;50.870;0.022;2023-10-13T12:14:17;26.40;;;11.68;;
37805;SDS011;25082;50.870;0.022;2023-10-13T12:17:02;29.77;;;12.43;;
37805;SDS011;25082;50.870;0.022;2023-10-13T12:19:29;29.88;;;11.82;;
37805;SDS011;25082;50.870;0.022;2023-10-13T12:21:56;27.17;;;11.50;;
37805;SDS011;25082;50.870;0.022;2023-10-13T12:24:23;23.80;;;9.65;;
37805;SDS011;25082;50.870;0.022;2023-10-13T12:29:50;26.08;;;9.90;;
37805;SDS011;25082;50.870;0.022;2023-10-13T12:32:17;31.35;;;10.52;;
37805;SDS011;25082;50.870;0.022;2023-10-13T12:37:27;34.47;;;10.20;;
37805;SDS011;25082;50.870;0.022;2023-10-13T12:42:55;23.27;;;8.07;;
37805;SDS011;25082;50.870;0.022;2023-10-13T12:45:40;25.45;;;8.20;;
37805;SDS011;25082;50.870;0.022;2023-10-13T12:48:28;30.10;;;8.82;;
37805;SDS011;25082;50.870;0.022;2023-10-13T12:51:13;31.80;;;9.25;;
37805;SDS011;25082;50.870;0.022;2023-10-13T12:53:51;30.33;;;7.30;;
37805;SDS011;25082;50.870;0.022;2023-10-13T12:56:19;29.27;;;8.05;;
37805;SDS011;25082;50.870;0.022;2023-10-13T12:58:52;27.65;;;6.28;;
37805;SDS011;25082;50.870;0.022;2023-10-13T13:01:18;27.55;;;6.85;;
37805;SDS011;25082;50.870;0.022;2023-10-13T13:03:45;30.17;;;7.35;;
37805;SDS011;25082;50.870;0.022;2023-10-13T13:08:50;22.70;;;6.22;;
37805;SDS011;25082;50.870;0.022;2023-10-13T13:11:19;30.48;;;6.93;;
37805;SDS011;25082;50.870;0.022;2023-10-13T13:13:45;29.30;;;8.07;;
37805;SDS011;25082;50.870;0.022;2023-10-13T13:16:12;29.50;;;7.68;;
37805;SDS011;25082;50.870;0.022;2023-10-13T13:18:38;34.75;;;7.28;;
37805;SDS011;25082;50.870;0.022;2023-10-13T13:21:04;29.13;;;6.13;;
37805;SDS011;25082;50.870;0.022;2023-10-13T13:23:37;24.90;;;6.20;;
37805;SDS011;25082;50.870;0.022;2023-10-13T13:26:04;31.15;;;7.30;;
37805;SDS011;25082;50.870;0.022;2023-10-13T13:28:41;32.40;;;7.15;;
37805;SDS011;25082;50.870;0.022;2023-10-13T13:31:07;26.50;;;7.45;;
37805;SDS011;25082;50.870;0.022;2023-10-13T13:33:34;28.17;;;7.18;;
37805;SDS011;25082;50.870;0.022;2023-10-13T13:36:07;30.90;;;7.55;;
37805;SDS011;25082;50.870;0.022;2023-10-13T13:38:33;25.92;;;6.22;;
37805;SDS011;25082;50.870;0.022;2023-10-13T13:40:59;28.02;;;6.80;;
37805;SDS011;25082;50.870;0.022;2023-10-13T13:43:27;30.35;;;7.93;;
37805;SDS011;25082;50.870;0.022;2023-10-13T13:45:57;24.65;;;7.75;;
37805;SDS011;25082;50.870;0.022;2023-10-13T13:48:26;24.67;;;7.38;;
37805;SDS011;25082;50.870;0.022;2023-10-13T13:50:53;26.15;;;7.63;;
37805;SDS011;25082;50.870;0.022;2023-10-13T13:53:28;29.95;;;8.07;;
37805;SDS011;25082;50.870;0.022;2023-10-13T13:55:59;23.05;;;7.03;;
37805;SDS011;25082;50.870;0.022;2023-10-13T13:58:29;29.75;;;7.03;;
37805;SDS011;25082;50.870;0.022;2023-10-13T14:01:02;34.20;;;8.25;;
37805;SDS011;25082;50.870;0.022;2023-10-13T14:03:44;24.77;;;6.80;;
37805;SDS011;25082;50.870;0.022;2023-10-13T14:06:12;25.38;;;7.28;;
37805;SDS011;25082;50.870;0.022;2023-10-13T14:08:43;33.35;;;7.65;;
37805;SDS011;25082;50.870;0.022;2023-10-13T14:11:15;28.00;;;7.18;;
37805;SDS011;25082;50.870;0.022;2023-10-13T14:14:01;24.55;;;6.50;;
37805;SDS011;25082;50.870;0.022;2023-10-13T14:16:29;27.38;;;6.80;;
37805;SDS011;25082;50.870;0.022;2023-10-13T14:18:58;31.27;;;7.43;;
37805;SDS011;25082;50.870;0.022;2023-10-13T14:21:26;26.65;;;8.25;;
37805;SDS011;25082;50.870;0.022;2023-10-13T14:23:53;24.80;;;6.63;;
37805;SDS011;25082;50.870;0.022;2023-10-13T14:26:19;26.00;;;7.65;;
37805;SDS011;25082;50.870;0.022;2023-10-13T14:28:47;25.00;;;6.72;;
37805;SDS011;25082;50.870;0.022;2023-10-13T14:31:31;19.92;;;6.18;;
37805;SDS011;25082;50.870;0.022;2023-10-13T14:33:57;24.52;;;6.70;;
37805;SDS011;25082;50.870;0.022;2023-10-13T14:36:24;30.52;;;7.50;;
37805;SDS011;25082;50.870;0.022;2023-10-13T14:38:54;26.27;;;7.68;;
37805;SDS011;25082;50.870;0.022;2023-10-13T14:41:21;27.15;;;7.30;;
37805;SDS011;25082;50.870;0.022;2023-10-13T14:43:47;24.00;;;7.78;;
37805;SDS011;25082;50.870;0.022;2023-10-13T14:46:15;28.45;;;6.53;;
37805;SDS011;25082;50.870;0.022;2023-10-13T14:48:44;26.83;;;6.20;;
37805;SDS011;25082;50.870;0.022;2023-10-13T14:51:13;20.70;;;5.70;;
37805;SDS011;25082;50.870;0.022;2023-10-13T14:53:42;21.20;;;6.60;;
37805;SDS011;25082;50.870;0.022;2023-10-13T14:56:14;17.33;;;5.57;;
37805;SDS011;25082;50.870;0.022;2023-10-13T14:58:42;20.95;;;6.15;;
37805;SDS011;25082;50.870;0.022;2023-10-13T15:01:15;16.83;;;5.00;;
37805;SDS011;25082;50.870;0.022;2023-10-13T15:03:45;17.63;;;5.28;;
37805;SDS011;25082;50.870;0.022;2023-10-13T15:06:19;20.42;;;5.07;;
37805;SDS011;25082;50.870;0.022;2023-10-13T15:08:46;16.80;;;5.38;;
37805;SDS011;25082;50.870;0.022;2023-10-13T15:11:13;23.08;;;6.40;;
37805;SDS011;25082;50.870;0.022;2023-10-13T15:13:41;25.33;;;5.95;;
37805;SDS011;25082;50.870;0.022;2023-10-13T15:16:20;19.02;;;4.97;;
37805;SDS011;25082;50.870;0.022;2023-10-13T15:18:48;32.53;;;6.78;;
37805;SDS011;25082;50.870;0.022;2023-10-13T15:23:48;20.58;;;5.00;;
37805;SDS011;25082;50.870;0.022;2023-10-13T15:26:16;19.33;;;5.07;;
37805;SDS011;25082;50.870;0.022;2023-10-13T15:28:42;14.90;;;4.65;;
37805;SDS011;25082;50.870;0.022;2023-10-13T15:31:28;15.27;;;4.75;;
37805;SDS011;25082;50.870;0.022;2023-10-13T15:34:03;19.92;;;4.25;;
37805;SDS011;25082;50.870;0.022;2023-10-13T15:36:37;17.35;;;4.28;;
37805;SDS011;25082;50.870;0.022;2023-10-13T15:39:10;20.20;;;5.85;;
37805;SDS011;25082;50.870;0.022;2023-10-13T15:41:37;19.50;;;4.78;;
37805;SDS011;25082;50.870;0.022;2023-10-13T15:44:10;21.98;;;5.10;;
37805;SDS011;25082;50.870;0.022;2023-10-13T15:46:38;14.15;;;4.50;;
37805;SDS011;25082;50.870;0.022;2023-10-13T15:49:04;19.05;;;4.85;;
37805;SDS011;25082;50.870;0.022;2023-10-13T15:51:34;19.75;;;4.90;;
37805;SDS011;25082;50.870;0.022;2023-10-13T15:54:01;16.15;;;4.07;;
37805;SDS011;25082;50.870;0.022;2023-10-13T15:56:28;13.60;;;4.00;;